Latest Weather Observations for Yarrawonga

IDN60801

Issued at 11:03 pm EDT Sunday 19 November 2017 (issued every 30 minutes, with the page automatically refreshed every 10 minutes)

About weather observations | Map of weather stations | Latest weather observations for NSW | Other Formats
Station Details ID: 081124 Name: YARRAWONGA Lat: -36.03 Lon: 146.03 Height: 128.9 m
Data from the previous 72 hours. | See also: Recent months at Yarrawonga
Date/Time
EDT
Temp
°C
App
Temp
°C
Dew
Point
°C
Rel
Hum
%
Delta-T
°C
Wind Press
QNH
hPa
Press
MSL
hPa
Rain since
9am
mm
Dir  Spd
km/h
Gust
km/h
Spd
kts
Gust
kts
19/11:00pm 16.8 15.6 12.9 78 2.2 ENE 11 13 6 7 1020.4 1020.1 0.0
19/10:30pm 17.1 15.8 12.4 74 2.6 ENE 11 13 6 7 1020.3 1020.0 0.0
19/10:00pm 18.2 17.3 12.6 70 3.1 ENE 9 11 5 6 1020.1 1019.8 0.0
19/09:30pm 19.7 19.6 13.9 69 3.4 NE 7 9 4 5 1019.8 1019.5 0.0
19/09:00pm 19.2 19.0 13.6 70 3.2 E 7 11 4 6 1019.5 1019.2 0.0
19/08:30pm 21.1 20.8 13.3 61 4.5 ESE 7 7 4 4 1019.3 1019.0 0.0
19/08:00pm 23.4 22.9 12.7 51 6.2 ESE 7 7 4 4 1019.1 1018.8 0.0
19/07:30pm 25.1 24.1 12.3 45 7.4 ESE 9 15 5 8 1019.0 1018.7 0.0
19/07:00pm 27.3 25.2 11.3 37 9.2 E 13 19 7 10 1018.9 1018.6 0.0
19/06:30pm 28.0 26.8 11.5 35 9.5 ESE 9 15 5 8 1018.8 1018.5 0.0
19/06:00pm 27.3 24.6 10.5 35 9.5 E 15 20 8 11 1018.8 1018.5 0.0
19/05:30pm 28.2 26.9 11.3 35 9.7 E 9 17 5 9 1018.7 1018.4 0.0
19/05:00pm 29.0 27.7 12.4 36 9.7 ESE 11 20 6 11 1018.7 1018.4 0.0
19/04:30pm 28.5 26.0 12.4 37 9.4 E 17 24 9 13 1018.7 1018.4 0.0
19/04:00pm 28.6 26.2 12.5 37 9.4 ENE 17 30 9 16 1018.7 1018.4 0.0
19/03:30pm 28.7 27.8 13.8 40 8.9 NE 11 22 6 12 1019.0 1018.7 0.0
19/03:00pm 28.5 27.4 13.2 39 9.1 ENE 11 19 6 10 1019.3 1019.0 0.0
19/02:30pm 27.2 25.9 12.4 40 8.6 E 11 19 6 10 1019.7 1019.4 0.0
19/02:00pm 27.0 25.7 12.6 41 8.4 E 11 17 6 9 1020.1 1019.8 0.0
19/01:30pm 26.4 26.6 13.2 44 7.8 NNE 4 7 2 4 1020.6 1020.3 0.0
19/01:00pm 26.4 25.9 13.9 46 7.4 NE 9 17 5 9 1020.7 1020.4 0.0
19/12:30pm 26.1 25.5 13.6 46 7.4 E 9 17 5 9 1021.0 1020.7 0.0
19/12:00pm 26.8 26.0 13.9 45 7.7 NE 11 22 6 12 1021.2 1020.9 0.0
19/11:30am 24.5 22.2 13.1 49 6.6 NNE 17 26 9 14 1021.5 1021.2 0.0
19/11:00am 24.4 21.7 13.6 51 6.3 NNE 20 32 11 17 1021.5 1021.2 0.0
19/10:30am 25.1 23.1 13.9 49 6.6 NE 17 30 9 16 1021.2 1020.9 0.0
19/10:00am 24.6 22.2 13.8 51 6.4 NE 19 32 10 17 1021.4 1021.1 0.0
19/09:30am 23.8 21.2 13.9 54 5.8 NE 20 32 11 17 1021.3 1021.0 0.0
19/09:00am 21.9 18.8 13.5 59 4.9 ENE 22 33 12 18 1021.3 1021.0 0.0
19/08:30am 20.4 18.2 14.3 68 3.6 ENE 19 28 10 15 1020.9 1020.6 0.0
19/08:00am 19.3 17.0 14.1 72 3.0 E 19 24 10 13 1020.5 1020.2 0.0
19/07:30am 17.6 17.7 15.4 87 1.3 E 9 15 5 8 1020.2 1019.9 0.0
19/07:00am 15.0 14.7 14.5 97 0.3 ESE 9 13 5 7 1020.0 1019.7 0.0
19/06:30am 13.2 12.9 13.2 100 0.0 ESE 7 9 4 5 1019.7 1019.4 0.0
19/06:00am 13.0 12.6 13.0 100 0.0 ESE 7 9 4 5 1019.3 1019.0 0.0
19/05:30am 13.0 12.6 13.0 100 0.0 ESE 7 9 4 5 1019.2 1018.9 0.0
19/05:00am 12.8 11.9 12.6 99 0.1 ESE 9 11 5 6 1019.1 1018.8 0.0
19/04:30am 12.9 13.0 12.6 98 0.2 SE 4 6 2 3 1019.0 1018.7 0.0
19/04:00am 12.9 12.2 12.1 95 0.4 ESE 7 9 4 5 1019.0 1018.7 0.0
19/03:30am 14.1 14.4 13.5 96 0.3 SE 4 6 2 3 1019.1 1018.8 0.0
19/03:00am 14.3 14.6 13.5 95 0.4 SE 4 4 2 2 1019.0 1018.7 0.0
19/02:30am 14.4 14.2 13.6 95 0.4 SE 7 9 4 5 1018.9 1018.6 0.0
19/02:00am 14.9 14.7 13.6 92 0.7 ESE 7 7 4 4 1018.7 1018.4 0.0
19/01:30am 16.2 16.0 14.7 91 0.9 NE 9 11 5 6 1018.7 1018.4 0.0
19/01:00am 15.7 15.5 14.6 93 0.6 ENE 9 11 5 6 1018.7 1018.4 0.0
19/12:30am 15.6 15.6 14.1 91 0.9 ENE 7 9 4 5 1018.8 1018.5 0.0
19/12:00am 16.0 16.1 14.5 91 0.9 E 7 9 4 5 1018.6 1018.3 0.0
 
Date/Time
EDT
Temp
°C
App
Temp
°C
Dew
Point
°C
Rel
Hum
%
Delta-T
°C
Wind Press
QNH
hPa
Press
MSL
hPa
Rain since
9am
mm
Dir  Spd
km/h
Gust
km/h
Spd
kts
Gust
kts
18/11:30pm 16.6 16.8 14.6 88 1.2 ENE 7 9 4 5 1018.3 1018.0 0.0
18/11:00pm 17.5 17.4 15.0 85 1.5 NE 9 11 5 6 1018.0 1017.7 0.0
18/10:30pm 18.3 18.5 15.7 85 1.5 ENE 9 13 5 7 1018.0 1017.7 0.0
18/10:00pm 18.2 18.3 15.6 85 1.5 E 9 13 5 7 1017.8 1017.5 0.0
18/09:30pm 18.5 17.9 15.7 84 1.7 ENE 13 17 7 9 1017.3 1016.9 0.0
18/09:00pm 18.6 18.3 15.5 82 1.8 ENE 11 15 6 8 1017.0 1016.6 0.0
18/08:30pm 20.3 19.3 15.5 74 2.9 ENE 15 20 8 11 1017.0 1016.6 0.0
18/08:00pm 21.5 20.5 15.6 69 3.5 ENE 15 22 8 12 1016.8 1016.4 0.0
18/07:30pm 22.1 21.5 15.7 67 3.9 E 13 17 7 9 1016.6 1016.2 0.0
18/07:00pm 22.5 20.6 15.1 63 4.4 ENE 19 24 10 13 1016.4 1016.0 0.0
18/06:30pm 23.4 21.1 15.7 62 4.7 ENE 22 30 12 16 1016.3 1015.9 0.0
18/06:00pm 23.3 21.3 15.4 61 4.8 ENE 20 30 11 16 1016.4 1016.0 0.0
18/05:30pm 23.1 22.8 15.4 62 4.6 ENE 11 19 6 10 1016.5 1016.1 0.0
18/05:00pm 23.1 23.6 16.6 67 4.0 ENE 9 13 5 7 1016.4 1016.0 0.0
18/04:30pm 22.7 21.6 16.3 67 3.9 ENE 17 24 9 13 1016.7 1016.3 0.0
18/04:00pm 22.8 22.2 16.6 68 3.8 E 15 22 8 12 1016.7 1016.3 0.0
18/03:30pm 22.1 20.2 16.8 72 3.3 ENE 22 33 12 18 1016.5 1016.1 0.0
18/03:00pm 22.3 20.1 16.8 71 3.4 ENE 24 33 13 18 1016.6 1016.2 0.0
18/02:30pm 22.3 18.9 16.8 71 3.4 ENE 30 39 16 21 1016.9 1016.5 0.0
18/02:00pm 23.3 18.8 16.4 65 4.2 ENE 35 50 19 27 1017.2 1016.8 0.0
18/01:30pm 24.4 20.2 16.1 60 5.1 ENE 33 48 18 26 1017.4 1017.0 0.0
18/01:00pm 24.6 20.8 15.8 58 5.4 ENE 30 43 16 23 1017.2 1016.8 0.0
18/12:30pm 23.8 20.4 15.8 61 4.9 ENE 28 41 15 22 1017.1 1016.7 0.0
18/12:00pm 25.5 22.7 16.4 57 5.6 ENE 26 39 14 21 1016.9 1016.5 0.0
18/11:30am 26.6 24.9 16.2 52 6.4 NE 20 35 11 19 1016.7 1016.3 0.0
18/11:00am 24.6 22.2 15.5 57 5.5 ENE 22 35 12 19 1016.7 1016.3 0.0
18/10:30am 25.7 23.8 15.7 54 6.1 NE 20 37 11 20 1016.5 1016.1 0.0
18/10:00am 24.3 22.4 15.8 59 5.2 NE 20 33 11 18 1016.5 1016.1 0.0
18/09:30am 23.9 21.4 15.1 58 5.3 NE 22 37 12 20 1016.4 1016.0 0.0
18/09:00am 23.2 20.5 15.5 62 4.6 ENE 24 39 13 21 1016.4 1016.0 0.0
18/08:30am 21.5 19.5 15.6 69 3.5 ENE 20 28 11 15 1016.3 1015.9 0.0
18/08:00am 21.0 19.2 15.5 71 3.3 ENE 19 26 10 14 1016.1 1015.7 0.0
18/07:30am 18.4 17.6 15.1 81 1.9 E 13 20 7 11 1015.8 1015.4 0.0
18/07:00am 17.2 16.7 14.8 86 1.4 E 11 15 6 8 1015.6 1015.2 0.0
18/06:30am 16.0 15.4 14.5 91 0.9 ESE 11 15 6 8 1015.4 1015.0 0.0
18/06:00am 15.4 15.0 14.1 92 0.7 E 9 13 5 7 1015.1 1014.7 0.0
18/05:30am 15.4 15.0 14.1 92 0.7 ESE 9 11 5 6 1014.6 1014.3 0.0
18/05:00am 15.6 15.7 14.5 93 0.6 E 7 9 4 5 1014.3 1014.0 0.0
18/04:30am 16.3 16.5 14.8 91 0.9 ESE 7 9 4 5 1014.3 1014.0 0.0
18/04:00am 16.8 17.8 15.3 91 0.9 SE 4 6 2 3 1014.4 1014.1 0.0
18/03:30am 17.0 18.0 15.3 90 1.0 SE 4 6 2 3 1014.5 1014.2 0.0
18/03:00am 17.2 19.1 15.7 91 0.9 CALM 0 2 0 1 1014.5 1014.2 0.0
18/02:30am 17.2 17.9 15.5 90 1.0 ESE 6 7 3 4 1014.5 1014.2 0.0
18/02:00am 17.2 17.9 15.7 91 0.9 E 6 7 3 4 1014.5 1014.2 0.0
18/01:30am 17.2 17.6 15.4 89 1.1 ESE 7 9 4 5 1014.5 1014.2 0.0
18/01:00am 17.2 18.6 15.5 90 1.0 SSW 2 6 1 3 1014.7 1014.4 0.0
18/12:30am 16.2 17.3 14.7 91 0.9 SE 2 4 1 2 1014.6 1014.3 0.0
18/12:00am 16.1 16.6 14.1 88 1.1 SSW 4 6 2 3 1014.6 1014.3 0.0
 
Date/Time
EDT
Temp
°C
App
Temp
°C
Dew
Point
°C
Rel
Hum
%
Delta-T
°C
Wind Press
QNH
hPa
Press
MSL
hPa
Rain since
9am
mm
Dir  Spd
km/h
Gust
km/h
Spd
kts
Gust
kts
17/11:30pm 16.7 17.8 14.5 87 1.3 WSW 2 6 1 3 1014.6 1014.3 0.0
17/11:00pm 16.6 17.3 14.6 88 1.2 ENE 4 7 2 4 1015.2 1014.8 0.0
17/10:30pm 18.1 18.3 14.2 78 2.3 W 6 7 3 4 1014.4 1014.1 0.0
17/10:00pm 16.8 17.0 14.1 84 1.5 WSW 6 9 3 5 1014.1 1013.8 0.0
17/09:30pm 17.3 17.3 13.6 79 2.1 S 6 6 3 3 1013.7 1013.4 0.0
17/09:00pm 19.2 19.1 13.8 71 3.1 W 7 7 4 4 1013.3 1013.0 0.0
17/08:30pm 19.6 20.4 14.8 74 2.8 W 4 7 2 4 1012.9 1012.6 0.0
17/08:00pm 20.3 21.3 14.2 68 3.6 SSW 2 2 1 1 1012.6 1012.3 0.0
17/07:30pm 21.2 21.9 14.4 65 4.0 SW 4 6 2 3 1012.6 1012.3 0.0
17/07:00pm 22.9 22.4 12.5 52 6.0 W 7 9 4 5 1012.3 1012.0 0.0
17/06:30pm 24.1 22.4 12.4 48 6.7 W 13 19 7 10 1012.0 1011.7 0.0
17/06:00pm 24.2 23.1 13.1 50 6.5 WNW 11 19 6 10 1011.9 1011.6 0.0
17/05:30pm 24.8 23.0 13.4 49 6.7 W 15 22 8 12 1011.8 1011.5 0.0
17/05:00pm 24.3 23.2 14.4 54 5.9 WNW 13 20 7 11 1011.8 1011.5 0.0
17/04:30pm 24.3 22.9 14.4 54 5.9 WNW 15 20 8 11 1011.8 1011.5 0.0
17/04:00pm 24.6 23.8 15.0 55 5.8 NW 13 19 7 10 1011.9 1011.6 0.0
17/03:30pm 25.3 24.1 15.0 53 6.2 NW 15 24 8 13 1012.2 1011.9 0.0
17/03:00pm 25.4 24.0 14.5 51 6.5 NNW 15 24 8 13 1012.5 1012.2 0.0
17/02:30pm 25.0 23.4 15.0 53 6.0 NW 17 22 9 12 1013.0 1012.7 0.0
17/02:00pm 24.8 22.8 15.4 56 5.7 NNW 20 28 11 15 1013.3 1013.0 0.0
17/01:30pm 24.5 23.2 15.7 58 5.4 NNW 17 24 9 13 1013.6 1013.3 0.0
17/01:00pm 24.6 24.6 16.3 60 5.1 NNW 11 20 6 11 1013.8 1013.5 0.0
17/12:30pm 23.0 22.2 15.1 61 4.7 NNW 13 19 7 10 1014.0 1013.7 0.0
17/12:00pm 23.9 23.5 17.2 66 4.2 N 15 24 8 13 1014.2 1013.9 0.0
17/11:30am 22.5 23.0 16.5 69 3.7 N 9 15 5 8 1014.3 1014.0 0.0
17/11:00am 23.3 24.0 18.0 72 3.3 NNW 11 17 6 9 1014.5 1014.2 0.0
17/10:30am 21.8 22.2 17.2 75 2.8 N 11 19 6 10 1014.5 1014.2 0.0
17/10:00am 21.4 21.9 17.4 78 2.5 NNE 11 17 6 9 1014.5 1014.2 0.0
17/09:30am 20.2 20.4 16.8 81 2.1 NE 11 17 6 9 1014.5 1014.2 0.0
17/09:00am 20.0 19.7 16.4 80 2.2 NE 13 20 7 11 1014.4 1014.1 20.6
17/08:30am 19.2 18.9 16.4 84 1.7 NE 13 19 7 10 1014.1 1013.8 20.6
17/08:00am 18.8 19.6 16.4 86 1.4 NE 7 11 4 6 1014.0 1013.7 20.6
17/07:30am 17.8 19.6 17.5 98 0.2 E 4 6 2 3 1013.8 1013.5 20.6
17/07:00am 15.2 16.1 15.2 100 0.0 E 4 6 2 3 1013.6 1013.3 20.6
17/06:30am 14.6 14.9 14.6 100 0.0 E 6 7 3 4 1013.3 1013.0 20.6
17/06:00am 15.0 15.9 15.0 100 0.0 SE 4 6 2 3 1013.0 1012.7 20.6
17/05:30am 15.8 17.6 15.6 99 0.1 CALM 0 0 0 0 1012.6 1012.3 20.6
17/05:00am 16.1 17.6 15.8 98 0.2 SE 2 6 1 3 1012.5 1012.2 20.6
17/04:30am 16.5 18.0 15.7 95 0.5 N 2 4 1 2 1012.7 1012.4 20.6
17/04:00am 16.8 18.2 16.3 97 0.3 NW 4 6 2 3 1012.9 1012.6 20.6
17/03:30am 16.7 17.7 16.4 98 0.2 NW 6 7 3 4 1012.8 1012.5 20.6
17/03:00am 16.3 17.7 16.3 100 0.0 NE 4 6 2 3 1012.7 1012.4 20.6
17/02:30am 15.7 16.8 15.7 100 0.0 E 4 4 2 2 1012.7 1012.4 20.6
17/02:00am 15.7 16.8 15.7 100 0.0 ESE 4 4 2 2 1012.7 1012.4 20.6
17/01:30am 16.0 17.5 15.8 99 0.1 SE 2 4 1 2 1012.7 1012.4 20.6
17/01:00am 16.1 18.1 16.1 100 0.0 CALM 0 0 0 0 1012.9 1012.6 20.6
17/12:30am 15.8 17.6 15.6 99 0.1 CALM 0 0 0 0 1013.3 1013.0 20.6
17/12:00am 15.9 16.6 15.7 99 0.1 NNE 6 9 3 5 1013.1 1012.8 20.6
 
Date/Time
EDT
Temp
°C
App
Temp
°C
Dew
Point
°C
Rel
Hum
%
Delta-T
°C
Wind Press
QNH
hPa
Press
MSL
hPa
Rain since
9am
mm
Dir  Spd
km/h
Gust
km/h
Spd
kts
Gust
kts
16/11:30pm 15.0 16.1 14.7 98 0.2 NE 2 2 1 1 1013.0 1012.7 20.6

Other Formats:

Comma delimited format used in spreadsheet applications
http://www.bom.gov.au/fwo/IDN60801/IDN60801.94862.axf

JavaScript Object Notation format (JSON) in row-major order
http://www.bom.gov.au/fwo/IDN60801/IDN60801.94862.json